sensor_id;sensor_type;location;lat;lon;timestamp;pressure;altitude;pressure_sealevel;temperature;humidity
7052;BME280;3567;52.444;13.556;2022-11-15T00:00:48;101143.75;;;3.99;100.00
7052;BME280;3567;52.444;13.556;2022-11-15T00:03:15;101146.25;;;4.01;100.00
7052;BME280;3567;52.444;13.556;2022-11-15T00:05:41;101144.88;;;4.05;100.00
7052;BME280;3567;52.444;13.556;2022-11-15T00:08:06;101140.94;;;4.01;100.00
7052;BME280;3567;52.444;13.556;2022-11-15T00:10:31;101142.75;;;4.00;100.00
7052;BME280;3567;52.444;13.556;2022-11-15T00:12:57;101143.41;;;4.02;100.00
7052;BME280;3567;52.444;13.556;2022-11-15T00:15:22;101147.41;;;3.98;100.00
7052;BME280;3567;52.444;13.556;2022-11-15T00:17:50;101146.47;;;3.91;100.00
7052;BME280;3567;52.444;13.556;2022-11-15T00:20:17;101142.88;;;3.84;100.00
7052;BME280;3567;52.444;13.556;2022-11-15T00:22:42;101137.09;;;3.80;100.00
7052;BME280;3567;52.444;13.556;2022-11-15T00:25:08;101133.13;;;3.76;100.00
7052;BME280;3567;52.444;13.556;2022-11-15T00:27:33;101129.97;;;3.73;100.00
7052;BME280;3567;52.444;13.556;2022-11-15T00:29:58;101128.34;;;3.72;100.00
7052;BME280;3567;52.444;13.556;2022-11-15T00:32:24;101119.53;;;3.79;100.00
7052;BME280;3567;52.444;13.556;2022-11-15T00:34:49;101109.69;;;3.88;100.00
7052;BME280;3567;52.444;13.556;2022-11-15T00:37:14;101118.31;;;3.90;100.00
7052;BME280;3567;52.444;13.556;2022-11-15T00:39:40;101120.47;;;3.86;100.00
7052;BME280;3567;52.444;13.556;2022-11-15T00:42:05;101118.72;;;3.79;100.00
7052;BME280;3567;52.444;13.556;2022-11-15T00:44:30;101120.56;;;3.70;100.00
7052;BME280;3567;52.444;13.556;2022-11-15T00:46:56;101114.16;;;3.64;100.00
7052;BME280;3567;52.444;13.556;2022-11-15T00:49:21;101107.53;;;3.60;100.00
7052;BME280;3567;52.444;13.556;2022-11-15T00:51:46;101110.69;;;3.56;100.00
7052;BME280;3567;52.444;13.556;2022-11-15T00:54:12;101110.88;;;3.54;100.00
7052;BME280;3567;52.444;13.556;2022-11-15T00:56:37;101105.59;;;3.54;100.00
7052;BME280;3567;52.444;13.556;2022-11-15T00:59:02;101102.72;;;3.64;100.00
7052;BME280;3567;52.444;13.556;2022-11-15T01:01:28;101108.78;;;3.73;100.00
7052;BME280;3567;52.444;13.556;2022-11-15T01:03:53;101099.88;;;3.74;100.00
7052;BME280;3567;52.444;13.556;2022-11-15T01:06:19;101100.16;;;3.79;100.00
7052;BME280;3567;52.444;13.556;2022-11-15T01:08:44;101093.97;;;3.86;100.00
7052;BME280;3567;52.444;13.556;2022-11-15T01:11:11;101085.84;;;3.88;100.00
7052;BME280;3567;52.444;13.556;2022-11-15T01:13:38;101086.84;;;3.87;100.00
7052;BME280;3567;52.444;13.556;2022-11-15T01:16:08;101088.03;;;3.84;100.00
7052;BME280;3567;52.444;13.556;2022-11-15T01:18:34;101092.84;;;3.81;100.00
7052;BME280;3567;52.444;13.556;2022-11-15T01:21:04;101086.63;;;3.74;100.00
7052;BME280;3567;52.444;13.556;2022-11-15T01:23:30;101088.97;;;3.68;100.00
7052;BME280;3567;52.444;13.556;2022-11-15T01:25:59;101084.00;;;3.65;100.00
7052;BME280;3567;52.444;13.556;2022-11-15T01:28:25;101075.56;;;3.62;100.00
7052;BME280;3567;52.444;13.556;2022-11-15T01:30:50;101074.09;;;3.59;100.00
7052;BME280;3567;52.444;13.556;2022-11-15T01:33:15;101070.16;;;3.55;100.00
7052;BME280;3567;52.444;13.556;2022-11-15T01:35:41;101073.50;;;3.49;100.00
7052;BME280;3567;52.444;13.556;2022-11-15T01:38:07;101067.25;;;3.42;100.00
7052;BME280;3567;52.444;13.556;2022-11-15T01:40:32;101059.34;;;3.34;100.00
7052;BME280;3567;52.444;13.556;2022-11-15T01:42:57;101062.50;;;3.29;100.00
7052;BME280;3567;52.444;13.556;2022-11-15T01:45:23;101061.22;;;3.25;100.00
7052;BME280;3567;52.444;13.556;2022-11-15T01:47:51;101063.19;;;3.23;100.00
7052;BME280;3567;52.444;13.556;2022-11-15T01:50:22;101044.03;;;3.21;100.00
7052;BME280;3567;52.444;13.556;2022-11-15T01:52:48;101044.84;;;3.22;100.00
7052;BME280;3567;52.444;13.556;2022-11-15T01:55:19;101044.03;;;3.21;100.00
7052;BME280;3567;52.444;13.556;2022-11-15T01:57:47;101043.53;;;3.18;100.00
7052;BME280;3567;52.444;13.556;2022-11-15T02:00:14;101035.28;;;3.12;100.00
7052;BME280;3567;52.444;13.556;2022-11-15T02:02:40;101040.94;;;3.09;100.00
7052;BME280;3567;52.444;13.556;2022-11-15T02:05:06;101031.50;;;3.07;100.00
7052;BME280;3567;52.444;13.556;2022-11-15T02:07:32;101025.72;;;3.03;100.00
7052;BME280;3567;52.444;13.556;2022-11-15T02:10:04;101024.06;;;3.02;100.00
7052;BME280;3567;52.444;13.556;2022-11-15T02:12:31;101024.91;;;3.03;100.00
7052;BME280;3567;52.444;13.556;2022-11-15T02:14:57;101022.09;;;3.04;100.00
7052;BME280;3567;52.444;13.556;2022-11-15T02:36:51;101023.69;;;3.13;100.00
7052;BME280;3567;52.444;13.556;2022-11-15T02:39:35;101020.41;;;3.11;100.00
7052;BME280;3567;52.444;13.556;2022-11-15T02:42:11;101017.13;;;3.09;100.00
7052;BME280;3567;52.444;13.556;2022-11-15T02:45:03;101015.63;;;3.07;100.00
7052;BME280;3567;52.444;13.556;2022-11-15T02:47:32;101009.84;;;3.03;100.00
7052;BME280;3567;52.444;13.556;2022-11-15T02:50:03;101011.84;;;3.01;100.00
7052;BME280;3567;52.444;13.556;2022-11-15T02:52:31;101009.53;;;2.98;100.00
7052;BME280;3567;52.444;13.556;2022-11-15T02:54:58;101007.25;;;2.95;100.00
7052;BME280;3567;52.444;13.556;2022-11-15T02:57:43;101002.28;;;2.92;100.00
7052;BME280;3567;52.444;13.556;2022-11-15T03:00:16;101009.75;;;2.88;100.00
7052;BME280;3567;52.444;13.556;2022-11-15T03:08:31;101002.66;;;2.81;100.00
7052;BME280;3567;52.444;13.556;2022-11-15T03:11:08;100998.72;;;2.77;100.00
7052;BME280;3567;52.444;13.556;2022-11-15T03:16:29;101002.22;;;2.69;100.00
7052;BME280;3567;52.444;13.556;2022-11-15T03:19:00;101000.91;;;2.65;100.00
7052;BME280;3567;52.444;13.556;2022-11-15T03:21:28;100999.75;;;2.59;100.00
7052;BME280;3567;52.444;13.556;2022-11-15T03:23:58;101000.13;;;2.56;100.00
7052;BME280;3567;52.444;13.556;2022-11-15T03:26:28;101004.72;;;2.54;100.00
7052;BME280;3567;52.444;13.556;2022-11-15T03:29:16;100999.81;;;2.51;100.00
7052;BME280;3567;52.444;13.556;2022-11-15T03:31:46;101000.13;;;2.48;100.00
7052;BME280;3567;52.444;13.556;2022-11-15T03:34:50;100995.19;;;2.45;100.00
7052;BME280;3567;52.444;13.556;2022-11-15T03:37:17;100999.97;;;2.42;100.00
7052;BME280;3567;52.444;13.556;2022-11-15T03:39:45;100991.38;;;2.40;100.00
7052;BME280;3567;52.444;13.556;2022-11-15T03:42:21;100991.38;;;2.40;100.00
7052;BME280;3567;52.444;13.556;2022-11-15T03:45:20;100992.22;;;2.40;100.00
7052;BME280;3567;52.444;13.556;2022-11-15T03:48:02;100981.81;;;2.39;100.00
7052;BME280;3567;52.444;13.556;2022-11-15T03:50:29;100983.63;;;2.38;100.00
7052;BME280;3567;52.444;13.556;2022-11-15T03:52:55;100983.63;;;2.38;100.00
7052;BME280;3567;52.444;13.556;2022-11-15T03:55:21;100980.34;;;2.36;100.00
7052;BME280;3567;52.444;13.556;2022-11-15T03:57:50;100988.28;;;2.36;100.00
7052;BME280;3567;52.444;13.556;2022-11-15T04:00:17;100993.38;;;2.38;100.00
7052;BME280;3567;52.444;13.556;2022-11-15T04:02:42;100990.91;;;2.36;100.00
7052;BME280;3567;52.444;13.556;2022-11-15T04:05:08;100985.94;;;2.33;100.00
7052;BME280;3567;52.444;13.556;2022-11-15T04:07:33;100988.78;;;2.31;100.00
7052;BME280;3567;52.444;13.556;2022-11-15T04:09:58;100982.66;;;2.31;100.00
7052;BME280;3567;52.444;13.556;2022-11-15T04:12:35;100985.47;;;2.29;100.00
7052;BME280;3567;52.444;13.556;2022-11-15T04:15:09;100985.31;;;2.31;100.00
7052;BME280;3567;52.444;13.556;2022-11-15T04:17:52;100988.78;;;2.31;100.00
7052;BME280;3567;52.444;13.556;2022-11-15T04:20:21;100979.34;;;2.29;100.00
7052;BME280;3567;52.444;13.556;2022-11-15T04:23:14;100968.94;;;2.27;100.00
7052;BME280;3567;52.444;13.556;2022-11-15T04:25:59;100969.94;;;2.26;100.00
7052;BME280;3567;52.444;13.556;2022-11-15T04:28:26;100974.41;;;2.26;100.00
7052;BME280;3567;52.444;13.556;2022-11-15T04:30:51;100971.13;;;2.24;100.00
7052;BME280;3567;52.444;13.556;2022-11-15T04:33:17;100969.44;;;2.23;100.00
7052;BME280;3567;52.444;13.556;2022-11-15T04:35:43;100964.16;;;2.23;100.00
7052;BME280;3567;52.444;13.556;2022-11-15T04:38:10;100969.31;;;2.24;100.00
7052;BME280;3567;52.444;13.556;2022-11-15T04:40:36;100966.31;;;2.27;100.00
7052;BME280;3567;52.444;13.556;2022-11-15T04:43:03;100964.47;;;2.36;100.00
7052;BME280;3567;52.444;13.556;2022-11-15T04:45:29;100961.47;;;2.47;100.00
7052;BME280;3567;52.444;13.556;2022-11-15T04:47:54;100961.78;;;2.52;100.00
7052;BME280;3567;52.444;13.556;2022-11-15T04:50:20;100959.47;;;2.49;100.00
7052;BME280;3567;52.444;13.556;2022-11-15T04:52:53;100961.28;;;2.49;100.00
7052;BME280;3567;52.444;13.556;2022-11-15T04:55:19;100961.09;;;2.50;100.00
7052;BME280;3567;52.444;13.556;2022-11-15T04:57:44;100970.03;;;2.49;100.00
7052;BME280;3567;52.444;13.556;2022-11-15T05:00:12;100961.47;;;2.47;100.00
7052;BME280;3567;52.444;13.556;2022-11-15T05:02:38;100961.47;;;2.47;100.00
7052;BME280;3567;52.444;13.556;2022-11-15T05:05:23;100957.00;;;2.48;100.00
7052;BME280;3567;52.444;13.556;2022-11-15T05:07:49;100955.00;;;2.50;100.00
7052;BME280;3567;52.444;13.556;2022-11-15T05:10:14;100951.72;;;2.48;100.00
7052;BME280;3567;52.444;13.556;2022-11-15T05:12:40;100945.59;;;2.47;100.00
7052;BME280;3567;52.444;13.556;2022-11-15T05:15:06;100951.03;;;2.54;100.00
7052;BME280;3567;52.444;13.556;2022-11-15T05:17:31;100944.22;;;2.68;100.00
7052;BME280;3567;52.444;13.556;2022-11-15T05:19:56;100952.47;;;2.65;100.00
7052;BME280;3567;52.444;13.556;2022-11-15T05:22:22;100948.69;;;2.59;100.00
7052;BME280;3567;52.444;13.556;2022-11-15T05:24:47;100948.06;;;2.57;100.00
7052;BME280;3567;52.444;13.556;2022-11-15T05:27:13;100950.19;;;2.53;100.00
7052;BME280;3567;52.444;13.556;2022-11-15T05:29:38;100945.25;;;2.50;100.00
7052;BME280;3567;52.444;13.556;2022-11-15T05:32:05;100947.25;;;2.48;100.00
7052;BME280;3567;52.444;13.556;2022-11-15T05:34:31;100947.25;;;2.48;100.00
7052;BME280;3567;52.444;13.556;2022-11-15T05:36:57;100947.25;;;2.48;100.00
7052;BME280;3567;52.444;13.556;2022-11-15T05:39:22;100951.53;;;2.49;100.00
7052;BME280;3567;52.444;13.556;2022-11-15T05:41:53;100955.34;;;2.47;100.00
7052;BME280;3567;52.444;13.556;2022-11-15T05:44:22;100955.69;;;2.44;100.00
7052;BME280;3567;52.444;13.556;2022-11-15T05:46:49;100956.69;;;2.43;100.00
7052;BME280;3567;52.444;13.556;2022-11-15T05:49:17;100958.84;;;2.39;100.00
7052;BME280;3567;52.444;13.556;2022-11-15T05:51:46;100957.38;;;2.36;100.00
7052;BME280;3567;52.444;13.556;2022-11-15T05:54:14;100959.50;;;2.33;100.00
7052;BME280;3567;52.444;13.556;2022-11-15T05:56:40;100972.09;;;2.31;100.00
7052;BME280;3567;52.444;13.556;2022-11-15T06:01:50;100974.06;;;2.29;100.00
7052;BME280;3567;52.444;13.556;2022-11-15T06:04:15;100968.75;;;2.29;100.00
7052;BME280;3567;52.444;13.556;2022-11-15T06:06:41;100960.00;;;2.28;100.00
7052;BME280;3567;52.444;13.556;2022-11-15T06:09:06;100962.50;;;2.30;100.00
7052;BME280;3567;52.444;13.556;2022-11-15T06:11:32;100967.63;;;2.31;100.00
7052;BME280;3567;52.444;13.556;2022-11-15T06:13:57;100964.16;;;2.31;100.00
7052;BME280;3567;52.444;13.556;2022-11-15T06:16:22;100974.72;;;2.31;100.00
7052;BME280;3567;52.444;13.556;2022-11-15T06:18:48;100973.09;;;2.30;100.00
7052;BME280;3567;52.444;13.556;2022-11-15T06:21:13;100973.22;;;2.28;100.00
7052;BME280;3567;52.444;13.556;2022-11-15T06:23:38;100970.44;;;2.30;100.00
7052;BME280;3567;52.444;13.556;2022-11-15T06:26:04;100976.19;;;2.33;100.00
7052;BME280;3567;52.444;13.556;2022-11-15T06:28:32;100980.34;;;2.36;100.00
7052;BME280;3567;52.444;13.556;2022-11-15T06:31:06;100974.69;;;2.39;100.00
7052;BME280;3567;52.444;13.556;2022-11-15T06:33:32;100974.03;;;2.45;100.00
7052;BME280;3567;52.444;13.556;2022-11-15T06:36:05;100979.16;;;2.47;100.00
7052;BME280;3567;52.444;13.556;2022-11-15T06:38:31;100978.97;;;2.56;100.00
7052;BME280;3567;52.444;13.556;2022-11-15T06:41:05;100975.44;;;2.64;100.00
7052;BME280;3567;52.444;13.556;2022-11-15T06:43:31;100980.22;;;2.69;100.00
7052;BME280;3567;52.444;13.556;2022-11-15T06:46:00;100977.91;;;2.74;100.00
7052;BME280;3567;52.444;13.556;2022-11-15T06:48:27;100966.97;;;2.77;100.00
7052;BME280;3567;52.444;13.556;2022-11-15T06:50:54;100982.50;;;2.80;100.00
7052;BME280;3567;52.444;13.556;2022-11-15T06:53:19;100983.81;;;2.84;100.00
7052;BME280;3567;52.444;13.556;2022-11-15T06:55:45;100982.47;;;2.88;100.00
7052;BME280;3567;52.444;13.556;2022-11-15T06:58:11;100981.94;;;2.93;100.00
7052;BME280;3567;52.444;13.556;2022-11-15T07:00:36;100981.44;;;2.97;100.00
7052;BME280;3567;52.444;13.556;2022-11-15T07:03:02;100984.69;;;3.07;100.00
7052;BME280;3567;52.444;13.556;2022-11-15T07:05:28;100987.91;;;3.26;100.00
7052;BME280;3567;52.444;13.556;2022-11-15T07:07:54;100989.22;;;3.53;100.00
7052;BME280;3567;52.444;13.556;2022-11-15T07:10:21;100980.63;;;3.74;100.00
7052;BME280;3567;52.444;13.556;2022-11-15T07:12:53;100982.03;;;3.84;100.00
7052;BME280;3567;52.444;13.556;2022-11-15T07:15:20;100982.97;;;3.91;100.00
7052;BME280;3567;52.444;13.556;2022-11-15T07:17:46;100990.72;;;3.93;100.00
7052;BME280;3567;52.444;13.556;2022-11-15T07:20:12;100990.38;;;3.96;100.00
7052;BME280;3567;52.444;13.556;2022-11-15T07:22:41;100996.50;;;3.97;100.00
7052;BME280;3567;52.444;13.556;2022-11-15T07:25:07;100994.69;;;3.97;100.00
7052;BME280;3567;52.444;13.556;2022-11-15T07:27:32;100990.28;;;4.04;100.00
7052;BME280;3567;52.444;13.556;2022-11-15T07:29:58;100991.16;;;4.19;100.00
7052;BME280;3567;52.444;13.556;2022-11-15T07:32:23;100992.38;;;4.32;100.00
7052;BME280;3567;52.444;13.556;2022-11-15T07:34:48;100986.25;;;4.46;100.00
7052;BME280;3567;52.444;13.556;2022-11-15T07:37:14;100995.84;;;4.62;100.00
7052;BME280;3567;52.444;13.556;2022-11-15T07:39:39;100994.84;;;4.78;100.00
7052;BME280;3567;52.444;13.556;2022-11-15T07:42:05;101000.34;;;4.91;100.00
7052;BME280;3567;52.444;13.556;2022-11-15T07:44:48;101003.81;;;5.06;100.00
7052;BME280;3567;52.444;13.556;2022-11-15T07:47:14;100997.44;;;5.22;100.00
7052;BME280;3567;52.444;13.556;2022-11-15T07:49:39;100996.75;;;5.35;100.00
7052;BME280;3567;52.444;13.556;2022-11-15T07:52:05;100997.28;;;5.45;100.00
7052;BME280;3567;52.444;13.556;2022-11-15T07:54:30;100996.78;;;5.56;100.00
7052;BME280;3567;52.444;13.556;2022-11-15T07:56:56;100983.25;;;5.72;100.00
7052;BME280;3567;52.444;13.556;2022-11-15T07:59:21;100991.47;;;5.77;100.00
7052;BME280;3567;52.444;13.556;2022-11-15T08:01:46;100981.81;;;5.91;100.00
7052;BME280;3567;52.444;13.556;2022-11-15T08:04:12;100988.66;;;6.07;100.00
7052;BME280;3567;52.444;13.556;2022-11-15T08:06:37;100982.25;;;6.23;100.00
7052;BME280;3567;52.444;13.556;2022-11-15T08:09:03;100979.25;;;6.33;100.00
7052;BME280;3567;52.444;13.556;2022-11-15T08:11:28;100981.75;;;6.41;100.00
7052;BME280;3567;52.444;13.556;2022-11-15T08:13:53;100979.75;;;6.49;100.00
7052;BME280;3567;52.444;13.556;2022-11-15T08:16:19;100972.44;;;6.58;100.00
7052;BME280;3567;52.444;13.556;2022-11-15T08:18:44;100976.59;;;6.67;100.00
7052;BME280;3567;52.444;13.556;2022-11-15T08:21:12;100979.91;;;6.76;100.00
7052;BME280;3567;52.444;13.556;2022-11-15T08:23:39;100971.56;;;6.86;100.00
7052;BME280;3567;52.444;13.556;2022-11-15T08:26:05;100973.84;;;6.95;100.00
7052;BME280;3567;52.444;13.556;2022-11-15T08:28:31;100974.50;;;7.04;100.00
7052;BME280;3567;52.444;13.556;2022-11-15T08:30:57;100980.28;;;7.14;100.00
7052;BME280;3567;52.444;13.556;2022-11-15T08:33:23;100974.38;;;7.25;100.00
7052;BME280;3567;52.444;13.556;2022-11-15T08:35:48;100975.00;;;7.34;100.00
7052;BME280;3567;52.444;13.556;2022-11-15T08:38:14;100977.28;;;7.44;100.00
7052;BME280;3567;52.444;13.556;2022-11-15T08:40:40;100976.28;;;7.51;100.00
7052;BME280;3567;52.444;13.556;2022-11-15T08:43:05;100976.91;;;7.60;100.00
7052;BME280;3567;52.444;13.556;2022-11-15T08:45:31;100973.41;;;7.66;100.00
7052;BME280;3567;52.444;13.556;2022-11-15T08:47:56;100967.47;;;7.71;100.00
7052;BME280;3567;52.444;13.556;2022-11-15T08:50:22;100969.75;;;7.80;100.00
7052;BME280;3567;52.444;13.556;2022-11-15T08:52:49;100966.25;;;7.86;100.00
7052;BME280;3567;52.444;13.556;2022-11-15T08:55:14;100966.66;;;7.97;100.00
7052;BME280;3567;52.444;13.556;2022-11-15T08:57:40;100967.06;;;8.07;100.00
7052;BME280;3567;52.444;13.556;2022-11-15T09:00:05;100968.50;;;8.16;100.00
7052;BME280;3567;52.444;13.556;2022-11-15T09:02:31;100968.91;;;8.26;100.00
7052;BME280;3567;52.444;13.556;2022-11-15T09:04:56;100976.69;;;8.34;100.00
7052;BME280;3567;52.444;13.556;2022-11-15T09:07:22;100969.31;;;8.43;100.00
7052;BME280;3567;52.444;13.556;2022-11-15T09:09:47;100973.19;;;8.54;100.00
7052;BME280;3567;52.444;13.556;2022-11-15T09:12:12;100976.25;;;8.64;100.00
7052;BME280;3567;52.444;13.556;2022-11-15T09:14:38;100981.16;;;8.74;100.00
7052;BME280;3567;52.444;13.556;2022-11-15T09:17:03;100977.84;;;8.78;100.00
7052;BME280;3567;52.444;13.556;2022-11-15T09:19:32;100970.66;;;8.85;100.00
7052;BME280;3567;52.444;13.556;2022-11-15T09:21:57;100982.94;;;8.93;100.00
7052;BME280;3567;52.444;13.556;2022-11-15T09:24:22;100980.63;;;9.03;100.00
7052;BME280;3567;52.444;13.556;2022-11-15T09:26:50;100976.06;;;9.10;100.00
7052;BME280;3567;52.444;13.556;2022-11-15T09:29:17;100977.25;;;9.21;100.00
7052;BME280;3567;52.444;13.556;2022-11-15T09:31:42;100975.97;;;9.30;100.00
7052;BME280;3567;52.444;13.556;2022-11-15T09:34:07;100969.06;;;9.48;100.00
7052;BME280;3567;52.444;13.556;2022-11-15T09:36:33;100977.97;;;9.73;100.00
7052;BME280;3567;52.444;13.556;2022-11-15T09:38:58;100978.25;;;10.15;100.00
7052;BME280;3567;52.444;13.556;2022-11-15T09:41:57;100982.16;;;10.62;100.00
7052;BME280;3567;52.444;13.556;2022-11-15T09:49:32;100979.75;;;11.81;98.07
7052;BME280;3567;52.444;13.556;2022-11-15T09:51:58;100983.31;;;12.17;96.26
7052;BME280;3567;52.444;13.556;2022-11-15T09:54:34;100976.28;;;12.51;93.89
7052;BME280;3567;52.444;13.556;2022-11-15T09:57:09;100979.19;;;12.84;92.53
7052;BME280;3567;52.444;13.556;2022-11-15T10:05:04;100967.47;;;13.93;87.45
7052;BME280;3567;52.444;13.556;2022-11-15T10:10:25;100960.94;;;14.61;84.82
7052;BME280;3567;52.444;13.556;2022-11-15T10:12:52;100958.56;;;14.87;83.56
7052;BME280;3567;52.444;13.556;2022-11-15T10:15:19;100949.66;;;15.08;82.63
7052;BME280;3567;52.444;13.556;2022-11-15T10:20:46;100943.78;;;15.43;77.82
7052;BME280;3567;52.444;13.556;2022-11-15T10:23:14;100934.81;;;15.65;77.75
7052;BME280;3567;52.444;13.556;2022-11-15T10:25:41;100931.44;;;15.80;76.56
7052;BME280;3567;52.444;13.556;2022-11-15T10:30:45;100921.34;;;16.02;74.53
7052;BME280;3567;52.444;13.556;2022-11-15T10:33:27;100913.00;;;16.04;73.21
7052;BME280;3567;52.444;13.556;2022-11-15T10:38:54;100905.53;;;16.21;71.60
7052;BME280;3567;52.444;13.556;2022-11-15T10:46:33;100886.91;;;16.30;70.42
7052;BME280;3567;52.444;13.556;2022-11-15T10:49:15;100881.09;;;16.06;68.26
7052;BME280;3567;52.444;13.556;2022-11-15T10:51:54;100889.22;;;15.68;71.20
7052;BME280;3567;52.444;13.556;2022-11-15T10:56:56;100883.34;;;15.17;72.94
7052;BME280;3567;52.444;13.556;2022-11-15T10:59:32;100886.56;;;14.87;72.91
7052;BME280;3567;52.444;13.556;2022-11-15T11:01:59;100876.56;;;14.61;74.29
7052;BME280;3567;52.444;13.556;2022-11-15T11:04:24;100864.38;;;14.36;75.11
7052;BME280;3567;52.444;13.556;2022-11-15T11:06:58;100866.56;;;14.18;75.46
7052;BME280;3567;52.444;13.556;2022-11-15T11:09:39;100864.13;;;13.99;76.00
7052;BME280;3567;52.444;13.556;2022-11-15T11:12:11;100873.13;;;13.88;77.10
7052;BME280;3567;52.444;13.556;2022-11-15T11:14:38;100862.28;;;13.83;77.39
7052;BME280;3567;52.444;13.556;2022-11-15T11:20:02;100855.13;;;13.72;78.04
7052;BME280;3567;52.444;13.556;2022-11-15T11:22:42;100860.44;;;13.67;78.45
7052;BME280;3567;52.444;13.556;2022-11-15T11:30:31;100843.78;;;13.70;79.65
7052;BME280;3567;52.444;13.556;2022-11-15T11:38:16;100836.00;;;13.90;79.15
7052;BME280;3567;52.444;13.556;2022-11-15T11:40:59;100830.13;;;13.93;79.03
7052;BME280;3567;52.444;13.556;2022-11-15T11:49:06;100825.56;;;14.15;79.27
7052;BME280;3567;52.444;13.556;2022-11-15T11:54:20;100826.84;;;14.30;78.13
7052;BME280;3567;52.444;13.556;2022-11-15T11:56:47;100823.13;;;14.36;78.28
7052;BME280;3567;52.444;13.556;2022-11-15T11:59:25;100820.00;;;14.44;78.29
7052;BME280;3567;52.444;13.556;2022-11-15T12:01:53;100817.41;;;14.49;78.21
7052;BME280;3567;52.444;13.556;2022-11-15T12:04:37;100817.13;;;14.51;76.98
7052;BME280;3567;52.444;13.556;2022-11-15T12:07:27;100825.78;;;14.53;77.08
7052;BME280;3567;52.444;13.556;2022-11-15T12:10:01;100820.97;;;14.55;77.71
7052;BME280;3567;52.444;13.556;2022-11-15T12:15:09;100815.75;;;14.70;78.06
7052;BME280;3567;52.444;13.556;2022-11-15T12:17:38;100807.34;;;14.66;78.64
7052;BME280;3567;52.444;13.556;2022-11-15T12:20:15;100800.16;;;14.50;77.54
7052;BME280;3567;52.444;13.556;2022-11-15T12:22:59;100804.00;;;14.37;78.61
7052;BME280;3567;52.444;13.556;2022-11-15T12:25:57;100797.25;;;14.35;78.75
7052;BME280;3567;52.444;13.556;2022-11-15T12:31:31;100785.19;;;14.42;78.38
7052;BME280;3567;52.444;13.556;2022-11-15T12:34:03;100785.50;;;14.46;78.43
7052;BME280;3567;52.444;13.556;2022-11-15T12:36:42;100787.16;;;14.47;78.27
7052;BME280;3567;52.444;13.556;2022-11-15T12:39:09;100782.75;;;14.41;78.14
7052;BME280;3567;52.444;13.556;2022-11-15T13:17:47;100758.06;;;12.94;83.71
7052;BME280;3567;52.444;13.556;2022-11-15T13:27:48;100756.13;;;12.90;85.89
7052;BME280;3567;52.444;13.556;2022-11-15T13:30:20;100748.88;;;12.90;85.84
7052;BME280;3567;52.444;13.556;2022-11-15T13:32:46;100753.19;;;12.91;85.20
7052;BME280;3567;52.444;13.556;2022-11-15T13:35:21;100750.50;;;12.91;85.64
7052;BME280;3567;52.444;13.556;2022-11-15T13:37:47;100740.22;;;12.88;85.81
7052;BME280;3567;52.444;13.556;2022-11-15T13:40:27;100747.72;;;12.86;86.23
7052;BME280;3567;52.444;13.556;2022-11-15T13:42:56;100746.66;;;12.87;86.11
7052;BME280;3567;52.444;13.556;2022-11-15T13:45:22;100736.50;;;12.89;86.71
7052;BME280;3567;52.444;13.556;2022-11-15T13:47:55;100737.06;;;12.91;86.64
7052;BME280;3567;52.444;13.556;2022-11-15T13:50:27;100732.97;;;12.89;86.81
7052;BME280;3567;52.444;13.556;2022-11-15T13:52:58;100732.16;;;12.88;86.92
7052;BME280;3567;52.444;13.556;2022-11-15T13:55:25;100741.22;;;12.82;87.14
7052;BME280;3567;52.444;13.556;2022-11-15T13:57:57;100736.00;;;12.75;87.12
7052;BME280;3567;52.444;13.556;2022-11-15T14:02:52;100738.16;;;12.62;87.93
7052;BME280;3567;52.444;13.556;2022-11-15T14:05:20;100737.25;;;12.56;87.68
7052;BME280;3567;52.444;13.556;2022-11-15T14:10:31;100742.13;;;12.42;88.71
7052;BME280;3567;52.444;13.556;2022-11-15T14:12:57;100732.56;;;12.35;89.30
7052;BME280;3567;52.444;13.556;2022-11-15T14:15:32;100743.00;;;12.31;89.41
7052;BME280;3567;52.444;13.556;2022-11-15T14:17:57;100734.50;;;12.22;89.78
7052;BME280;3567;52.444;13.556;2022-11-15T14:22:58;100741.78;;;12.10;90.20
7052;BME280;3567;52.444;13.556;2022-11-15T14:25:52;100740.75;;;11.99;91.46
7052;BME280;3567;52.444;13.556;2022-11-15T14:30:51;100737.16;;;11.82;91.53
7052;BME280;3567;52.444;13.556;2022-11-15T14:33:34;100736.69;;;11.73;92.50
7052;BME280;3567;52.444;13.556;2022-11-15T14:36:14;100732.28;;;11.67;92.77
7052;BME280;3567;52.444;13.556;2022-11-15T14:38:40;100730.88;;;11.65;92.81
7052;BME280;3567;52.444;13.556;2022-11-15T14:41:19;100729.13;;;11.59;93.15
7052;BME280;3567;52.444;13.556;2022-11-15T14:43:45;100721.91;;;11.47;93.30
7052;BME280;3567;52.444;13.556;2022-11-15T14:46:11;100725.41;;;11.36;93.35
7052;BME280;3567;52.444;13.556;2022-11-15T14:48:36;100731.38;;;11.26;93.87
7052;BME280;3567;52.444;13.556;2022-11-15T14:51:02;100726.56;;;11.17;94.41
7052;BME280;3567;52.444;13.556;2022-11-15T14:53:27;100732.50;;;11.07;94.00
7052;BME280;3567;52.444;13.556;2022-11-15T14:55:52;100723.41;;;10.96;94.43
7052;BME280;3567;52.444;13.556;2022-11-15T14:58:18;100714.53;;;10.84;94.83
7052;BME280;3567;52.444;13.556;2022-11-15T15:00:43;100711.59;;;10.74;95.54
7052;BME280;3567;52.444;13.556;2022-11-15T15:03:09;100705.88;;;10.59;95.88
7052;BME280;3567;52.444;13.556;2022-11-15T15:05:36;100693.72;;;10.44;95.98
7052;BME280;3567;52.444;13.556;2022-11-15T15:08:03;100706.25;;;10.32;96.41
7052;BME280;3567;52.444;13.556;2022-11-15T15:10:32;100702.09;;;10.18;97.40
7052;BME280;3567;52.444;13.556;2022-11-15T15:12:58;100701.44;;;10.04;97.64
7052;BME280;3567;52.444;13.556;2022-11-15T15:15:34;100701.41;;;9.92;97.88
7052;BME280;3567;52.444;13.556;2022-11-15T15:18:00;100703.78;;;9.82;98.45
7052;BME280;3567;52.444;13.556;2022-11-15T15:20:25;100698.38;;;9.70;98.35
7052;BME280;3567;52.444;13.556;2022-11-15T15:22:51;100695.63;;;9.59;98.68
7052;BME280;3567;52.444;13.556;2022-11-15T15:25:26;100695.75;;;9.45;99.27
7052;BME280;3567;52.444;13.556;2022-11-15T15:27:53;100693.81;;;9.34;99.50
7052;BME280;3567;52.444;13.556;2022-11-15T15:30:19;100690.25;;;9.22;99.69